Trappe, Pennsylvania
Current Conditions -  °F | °C
As of 12:54 AM on Wednesday 28 Jan 2015 (Local Time) from KPTW Reporting Station
Clear Clear  
Wind Chill:   Ceiling: Unl
Heat Index: 17°   Visibility: 10mi
Dew Point:   Wind: 12mph
Humidity: 59%   Direction: 310°NW
Pressure: 29.94"   Gusts: NA
Location:  40.1903°N, 75.4384°W
Report Text: KPTW 280554Z AUTO 31010KT 10SM CLR M08/M15 A2994 RMK AO2 SLP140 T10831150 11022 21083 53016
Loading
Personal Weather Stations






























Interactive Weather Map New forecast layout! Learn more

10-Day Weather Forecast

Advertisements
Track Severe Weather on mobile